< Typhoon 200211 2002 Season Typhoon 200213 >
Typhoon 200212 (KAMMURI)
General InformationTrack Information on Google MapsDetailed Wind InformationList of All Images || NewsDisaster Info.ResourceGoogle EarthGE AnimationAtom FeedGeoJSON
Detalied Best Track (Time Zone = UTC)
Year Month Day Hour Lat. Long. Pressure (hPa) Wind (kt) Class Image Chart
2002 8 2 00 19.5 120.3 1002 0 2 Image Chart
2002 8 2 06 19.3 119.6 1000 0 2 Image Chart
2002 8 2 12 19.8 118.5 998 0 2 Image Chart
2002 8 2 18 20.2 117.5 998 0 2 Image Chart
2002 8 3 00 20.8 117.3 998 0 2 Image Chart
2002 8 3 06 20.8 116.3 994 0 2 Image Chart
2002 8 3 12 20.8 115.4 994 0 2 Image Chart
2002 8 3 18 20.7 114.6 992 35 3 Image Chart
2002 8 4 00 20.5 114.4 992 40 3 Image Chart
2002 8 4 06 20.9 115.1 990 45 3 Image Chart
2002 8 4 12 21.5 115.0 985 50 4 Image Chart
2002 8 4 18 22.3 115.5 980 55 4 Image Chart
2002 8 5 00 23.0 115.7 985 50 4 Image Chart
2002 8 5 06 24.5 115.9 990 40 3 Image Chart
2002 8 5 12 25.0 115.4 992 0 2 Image Chart
2002 8 5 18 26.0 115.0 994 0 2 Image Chart
2002 8 6 00 27.0 115.2 996 0 2 Image Chart
2002 8 6 06 27.0 115.0 996 0 2 Image Chart
2002 8 6 12 27.5 114.0 998 0 2 Image Chart
2002 8 6 18 28.0 113.5 998 0 2 Image Chart
2002 8 7 00 28.4 114.2 1000 0 2 Image Chart
Japan Meteorological Agency Best Track Data | Correction Date : 2006-01-18
< Typhoon 200211 2002 Season Typhoon 200213 >

Help